sensor_id;sensor_type;location;lat;lon;timestamp;P1;durP1;ratioP1;P2;durP2;ratioP2
40150;SDS011;25866;52.420;10.640;2022-11-12T00:00:00;4.63;;;1.77;;
40150;SDS011;25866;52.420;10.640;2022-11-12T00:02:26;4.70;;;1.90;;
40150;SDS011;25866;52.420;10.640;2022-11-12T00:04:55;4.57;;;1.83;;
40150;SDS011;25866;52.420;10.640;2022-11-12T00:07:21;5.80;;;1.73;;
40150;SDS011;25866;52.420;10.640;2022-11-12T00:09:47;5.07;;;2.10;;
40150;SDS011;25866;52.420;10.640;2022-11-12T00:12:12;4.63;;;1.90;;
40150;SDS011;25866;52.420;10.640;2022-11-12T00:14:38;2.63;;;1.60;;
40150;SDS011;25866;52.420;10.640;2022-11-12T00:17:04;4.97;;;1.90;;
40150;SDS011;25866;52.420;10.640;2022-11-12T00:19:33;2.43;;;1.67;;
40150;SDS011;25866;52.420;10.640;2022-11-12T00:21:59;4.77;;;1.90;;
40150;SDS011;25866;52.420;10.640;2022-11-12T00:24:24;4.90;;;2.13;;
40150;SDS011;25866;52.420;10.640;2022-11-12T00:26:50;2.00;;;1.73;;
40150;SDS011;25866;52.420;10.640;2022-11-12T00:29:16;2.80;;;1.83;;
40150;SDS011;25866;52.420;10.640;2022-11-12T00:31:42;3.90;;;2.27;;
40150;SDS011;25866;52.420;10.640;2022-11-12T00:34:07;4.87;;;2.20;;
40150;SDS011;25866;52.420;10.640;2022-11-12T00:36:33;3.77;;;1.90;;
40150;SDS011;25866;52.420;10.640;2022-11-12T00:38:59;3.97;;;1.80;;
40150;SDS011;25866;52.420;10.640;2022-11-12T00:41:32;4.27;;;2.13;;
40150;SDS011;25866;52.420;10.640;2022-11-12T00:44:01;3.27;;;1.70;;
40150;SDS011;25866;52.420;10.640;2022-11-12T00:46:33;4.63;;;2.40;;
40150;SDS011;25866;52.420;10.640;2022-11-12T00:49:00;3.77;;;1.80;;
40150;SDS011;25866;52.420;10.640;2022-11-12T00:51:26;2.77;;;1.60;;
40150;SDS011;25866;52.420;10.640;2022-11-12T00:53:52;4.00;;;1.80;;
40150;SDS011;25866;52.420;10.640;2022-11-12T00:56:17;3.40;;;1.90;;
40150;SDS011;25866;52.420;10.640;2022-11-12T00:58:43;4.17;;;2.10;;
40150;SDS011;25866;52.420;10.640;2022-11-12T01:01:10;3.50;;;2.13;;
40150;SDS011;25866;52.420;10.640;2022-11-12T01:03:40;2.80;;;1.87;;
40150;SDS011;25866;52.420;10.640;2022-11-12T01:06:15;4.77;;;2.20;;
40150;SDS011;25866;52.420;10.640;2022-11-12T01:08:42;4.50;;;2.27;;
40150;SDS011;25866;52.420;10.640;2022-11-12T01:11:10;4.40;;;2.10;;
40150;SDS011;25866;52.420;10.640;2022-11-12T01:13:37;3.17;;;1.73;;
40150;SDS011;25866;52.420;10.640;2022-11-12T01:16:06;2.97;;;1.80;;
40150;SDS011;25866;52.420;10.640;2022-11-12T01:18:40;3.97;;;2.10;;
40150;SDS011;25866;52.420;10.640;2022-11-12T01:21:06;2.37;;;1.70;;
40150;SDS011;25866;52.420;10.640;2022-11-12T01:23:34;4.93;;;2.00;;
40150;SDS011;25866;52.420;10.640;2022-11-12T01:26:14;2.97;;;2.00;;
40150;SDS011;25866;52.420;10.640;2022-11-12T01:28:41;4.37;;;2.10;;
40150;SDS011;25866;52.420;10.640;2022-11-12T01:31:18;4.53;;;2.00;;
40150;SDS011;25866;52.420;10.640;2022-11-12T01:33:45;4.37;;;1.97;;
40150;SDS011;25866;52.420;10.640;2022-11-12T01:36:14;2.33;;;1.80;;
40150;SDS011;25866;52.420;10.640;2022-11-12T01:41:28;4.17;;;1.90;;
40150;SDS011;25866;52.420;10.640;2022-11-12T01:49:34;4.90;;;1.67;;
40150;SDS011;25866;52.420;10.640;2022-11-12T01:52:13;4.50;;;1.90;;
40150;SDS011;25866;52.420;10.640;2022-11-12T01:54:43;3.73;;;1.90;;
40150;SDS011;25866;52.420;10.640;2022-11-12T01:57:13;3.90;;;1.67;;
40150;SDS011;25866;52.420;10.640;2022-11-12T01:59:43;7.37;;;2.20;;
40150;SDS011;25866;52.420;10.640;2022-11-12T02:02:11;3.57;;;1.63;;
40150;SDS011;25866;52.420;10.640;2022-11-12T02:04:37;3.93;;;2.00;;
40150;SDS011;25866;52.420;10.640;2022-11-12T02:07:05;2.60;;;1.90;;
40150;SDS011;25866;52.420;10.640;2022-11-12T02:09:32;3.20;;;1.70;;
40150;SDS011;25866;52.420;10.640;2022-11-12T02:11:59;2.50;;;1.70;;
40150;SDS011;25866;52.420;10.640;2022-11-12T02:14:25;5.73;;;1.93;;
40150;SDS011;25866;52.420;10.640;2022-11-12T02:16:52;5.83;;;1.90;;
40150;SDS011;25866;52.420;10.640;2022-11-12T02:19:17;3.53;;;1.80;;
40150;SDS011;25866;52.420;10.640;2022-11-12T02:21:44;2.57;;;1.67;;
40150;SDS011;25866;52.420;10.640;2022-11-12T02:26:37;2.63;;;1.70;;
40150;SDS011;25866;52.420;10.640;2022-11-12T02:29:05;2.83;;;1.83;;
40150;SDS011;25866;52.420;10.640;2022-11-12T02:31:31;2.70;;;2.07;;
40150;SDS011;25866;52.420;10.640;2022-11-12T02:33:57;2.87;;;1.70;;
40150;SDS011;25866;52.420;10.640;2022-11-12T02:36:23;4.00;;;2.17;;
40150;SDS011;25866;52.420;10.640;2022-11-12T02:38:49;3.70;;;1.67;;
40150;SDS011;25866;52.420;10.640;2022-11-12T02:41:15;4.17;;;2.07;;
40150;SDS011;25866;52.420;10.640;2022-11-12T02:43:41;3.23;;;1.67;;
40150;SDS011;25866;52.420;10.640;2022-11-12T02:46:08;4.00;;;1.67;;
40150;SDS011;25866;52.420;10.640;2022-11-12T02:48:33;7.77;;;2.20;;
40150;SDS011;25866;52.420;10.640;2022-11-12T02:50:59;3.00;;;1.83;;
40150;SDS011;25866;52.420;10.640;2022-11-12T02:53:26;4.90;;;2.00;;
40150;SDS011;25866;52.420;10.640;2022-11-12T02:55:53;3.77;;;1.80;;
40150;SDS011;25866;52.420;10.640;2022-11-12T02:58:19;3.20;;;1.90;;
40150;SDS011;25866;52.420;10.640;2022-11-12T03:00:47;2.77;;;1.60;;
40150;SDS011;25866;52.420;10.640;2022-11-12T03:03:13;3.50;;;2.00;;
40150;SDS011;25866;52.420;10.640;2022-11-12T03:05:39;3.13;;;2.10;;
40150;SDS011;25866;52.420;10.640;2022-11-12T03:08:06;4.60;;;1.90;;
40150;SDS011;25866;52.420;10.640;2022-11-12T03:10:33;4.40;;;1.87;;
40150;SDS011;25866;52.420;10.640;2022-11-12T03:13:02;2.63;;;1.53;;
40150;SDS011;25866;52.420;10.640;2022-11-12T03:15:28;4.13;;;1.90;;
40150;SDS011;25866;52.420;10.640;2022-11-12T03:17:56;4.73;;;1.80;;
40150;SDS011;25866;52.420;10.640;2022-11-12T03:20:23;6.40;;;1.83;;
40150;SDS011;25866;52.420;10.640;2022-11-12T03:22:57;2.37;;;1.77;;
40150;SDS011;25866;52.420;10.640;2022-11-12T03:25:27;3.17;;;1.70;;
40150;SDS011;25866;52.420;10.640;2022-11-12T03:28:01;3.60;;;2.17;;
40150;SDS011;25866;52.420;10.640;2022-11-12T03:30:33;5.33;;;2.07;;
40150;SDS011;25866;52.420;10.640;2022-11-12T03:33:00;2.77;;;1.70;;
40150;SDS011;25866;52.420;10.640;2022-11-12T03:35:27;3.13;;;2.10;;
40150;SDS011;25866;52.420;10.640;2022-11-12T03:37:53;3.73;;;2.00;;
40150;SDS011;25866;52.420;10.640;2022-11-12T03:40:18;4.73;;;2.10;;
40150;SDS011;25866;52.420;10.640;2022-11-12T03:42:48;3.23;;;1.83;;
40150;SDS011;25866;52.420;10.640;2022-11-12T03:45:15;6.63;;;2.10;;
40150;SDS011;25866;52.420;10.640;2022-11-12T03:47:42;2.60;;;1.90;;
40150;SDS011;25866;52.420;10.640;2022-11-12T03:50:10;2.70;;;1.80;;
40150;SDS011;25866;52.420;10.640;2022-11-12T03:52:37;4.03;;;2.30;;
40150;SDS011;25866;52.420;10.640;2022-11-12T03:55:07;3.00;;;1.77;;
40150;SDS011;25866;52.420;10.640;2022-11-12T03:57:33;4.07;;;1.80;;
40150;SDS011;25866;52.420;10.640;2022-11-12T03:59:59;6.07;;;2.07;;
40150;SDS011;25866;52.420;10.640;2022-11-12T04:02:25;3.90;;;2.03;;
40150;SDS011;25866;52.420;10.640;2022-11-12T04:04:54;4.63;;;2.13;;
40150;SDS011;25866;52.420;10.640;2022-11-12T04:07:38;3.17;;;1.67;;
40150;SDS011;25866;52.420;10.640;2022-11-12T04:10:24;4.90;;;1.63;;
40150;SDS011;25866;52.420;10.640;2022-11-12T04:12:50;3.77;;;2.00;;
40150;SDS011;25866;52.420;10.640;2022-11-12T04:15:34;3.03;;;1.67;;
40150;SDS011;25866;52.420;10.640;2022-11-12T04:18:00;2.20;;;1.70;;
40150;SDS011;25866;52.420;10.640;2022-11-12T04:20:44;5.97;;;1.90;;
40150;SDS011;25866;52.420;10.640;2022-11-12T04:23:30;6.13;;;2.00;;
40150;SDS011;25866;52.420;10.640;2022-11-12T04:25:55;3.50;;;1.70;;
40150;SDS011;25866;52.420;10.640;2022-11-12T04:28:40;5.00;;;1.90;;
40150;SDS011;25866;52.420;10.640;2022-11-12T04:31:25;2.03;;;1.53;;
40150;SDS011;25866;52.420;10.640;2022-11-12T04:33:51;5.30;;;2.00;;
40150;SDS011;25866;52.420;10.640;2022-11-12T04:36:17;5.37;;;2.13;;
40150;SDS011;25866;52.420;10.640;2022-11-12T04:38:43;4.90;;;1.97;;
40150;SDS011;25866;52.420;10.640;2022-11-12T04:41:09;2.47;;;2.00;;
40150;SDS011;25866;52.420;10.640;2022-11-12T04:43:53;3.43;;;1.70;;
40150;SDS011;25866;52.420;10.640;2022-11-12T04:46:37;2.83;;;1.87;;
40150;SDS011;25866;52.420;10.640;2022-11-12T04:49:03;4.27;;;1.70;;
40150;SDS011;25866;52.420;10.640;2022-11-12T04:51:29;4.50;;;2.10;;
40150;SDS011;25866;52.420;10.640;2022-11-12T04:54:13;3.77;;;2.07;;
40150;SDS011;25866;52.420;10.640;2022-11-12T04:56:39;2.47;;;1.70;;
40150;SDS011;25866;52.420;10.640;2022-11-12T04:59:04;4.30;;;2.10;;
40150;SDS011;25866;52.420;10.640;2022-11-12T05:01:30;2.50;;;1.80;;
40150;SDS011;25866;52.420;10.640;2022-11-12T05:03:57;3.67;;;1.80;;
40150;SDS011;25866;52.420;10.640;2022-11-12T05:06:23;3.20;;;1.80;;
40150;SDS011;25866;52.420;10.640;2022-11-12T05:09:07;2.77;;;1.80;;
40150;SDS011;25866;52.420;10.640;2022-11-12T05:11:33;3.43;;;1.73;;
40150;SDS011;25866;52.420;10.640;2022-11-12T05:13:59;2.40;;;1.53;;
40150;SDS011;25866;52.420;10.640;2022-11-12T05:16:24;2.90;;;1.90;;
40150;SDS011;25866;52.420;10.640;2022-11-12T05:18:50;2.23;;;1.50;;
40150;SDS011;25866;52.420;10.640;2022-11-12T05:21:16;4.00;;;1.90;;
40150;SDS011;25866;52.420;10.640;2022-11-12T05:24:00;3.13;;;1.87;;
40150;SDS011;25866;52.420;10.640;2022-11-12T05:26:25;3.17;;;1.60;;
40150;SDS011;25866;52.420;10.640;2022-11-12T05:28:51;5.17;;;2.03;;
40150;SDS011;25866;52.420;10.640;2022-11-12T05:31:17;3.43;;;1.70;;
40150;SDS011;25866;52.420;10.640;2022-11-12T05:33:43;6.00;;;1.70;;
40150;SDS011;25866;52.420;10.640;2022-11-12T05:36:09;2.97;;;2.07;;
40150;SDS011;25866;52.420;10.640;2022-11-12T05:38:35;4.03;;;1.73;;
40150;SDS011;25866;52.420;10.640;2022-11-12T05:41:03;3.50;;;1.80;;
40150;SDS011;25866;52.420;10.640;2022-11-12T05:43:30;3.70;;;1.80;;
40150;SDS011;25866;52.420;10.640;2022-11-12T05:45:55;3.87;;;2.20;;
40150;SDS011;25866;52.420;10.640;2022-11-12T05:48:21;3.10;;;1.97;;
40150;SDS011;25866;52.420;10.640;2022-11-12T05:50:51;3.37;;;1.70;;
40150;SDS011;25866;52.420;10.640;2022-11-12T05:53:17;4.53;;;2.03;;
40150;SDS011;25866;52.420;10.640;2022-11-12T05:55:43;2.20;;;1.57;;
40150;SDS011;25866;52.420;10.640;2022-11-12T05:58:09;2.23;;;1.70;;
40150;SDS011;25866;52.420;10.640;2022-11-12T06:00:35;3.37;;;2.20;;
40150;SDS011;25866;52.420;10.640;2022-11-12T06:03:10;3.10;;;1.80;;
40150;SDS011;25866;52.420;10.640;2022-11-12T06:05:36;3.00;;;1.90;;
40150;SDS011;25866;52.420;10.640;2022-11-12T06:08:03;2.77;;;1.80;;
40150;SDS011;25866;52.420;10.640;2022-11-12T06:10:33;3.93;;;2.23;;
40150;SDS011;25866;52.420;10.640;2022-11-12T06:12:59;2.10;;;1.67;;
40150;SDS011;25866;52.420;10.640;2022-11-12T06:15:25;3.17;;;1.60;;
40150;SDS011;25866;52.420;10.640;2022-11-12T06:17:51;2.30;;;1.70;;
40150;SDS011;25866;52.420;10.640;2022-11-12T06:20:19;4.53;;;1.80;;
40150;SDS011;25866;52.420;10.640;2022-11-12T06:22:46;5.00;;;1.67;;
40150;SDS011;25866;52.420;10.640;2022-11-12T06:25:12;2.27;;;1.73;;
40150;SDS011;25866;52.420;10.640;2022-11-12T06:27:38;5.43;;;1.80;;
40150;SDS011;25866;52.420;10.640;2022-11-12T06:30:05;4.87;;;1.93;;
40150;SDS011;25866;52.420;10.640;2022-11-12T06:32:34;6.57;;;1.80;;
40150;SDS011;25866;52.420;10.640;2022-11-12T06:35:00;5.50;;;1.90;;
40150;SDS011;25866;52.420;10.640;2022-11-12T06:37:26;2.50;;;1.90;;
40150;SDS011;25866;52.420;10.640;2022-11-12T06:39:51;4.83;;;2.17;;
40150;SDS011;25866;52.420;10.640;2022-11-12T06:42:17;2.80;;;1.70;;
40150;SDS011;25866;52.420;10.640;2022-11-12T06:44:43;4.07;;;1.87;;
40150;SDS011;25866;52.420;10.640;2022-11-12T06:47:09;2.40;;;1.77;;
40150;SDS011;25866;52.420;10.640;2022-11-12T06:49:35;4.77;;;1.90;;
40150;SDS011;25866;52.420;10.640;2022-11-12T06:52:01;2.80;;;1.60;;
40150;SDS011;25866;52.420;10.640;2022-11-12T06:54:27;3.73;;;1.67;;
40150;SDS011;25866;52.420;10.640;2022-11-12T06:56:53;3.40;;;2.30;;
40150;SDS011;25866;52.420;10.640;2022-11-12T06:59:19;1.93;;;1.67;;
40150;SDS011;25866;52.420;10.640;2022-11-12T07:01:44;2.90;;;1.67;;
40150;SDS011;25866;52.420;10.640;2022-11-12T07:04:10;3.97;;;1.90;;
40150;SDS011;25866;52.420;10.640;2022-11-12T07:06:36;2.07;;;1.70;;
40150;SDS011;25866;52.420;10.640;2022-11-12T07:09:02;3.17;;;1.73;;
40150;SDS011;25866;52.420;10.640;2022-11-12T07:11:29;4.37;;;1.73;;
40150;SDS011;25866;52.420;10.640;2022-11-12T07:13:54;5.30;;;1.63;;
40150;SDS011;25866;52.420;10.640;2022-11-12T07:16:20;3.17;;;1.70;;
40150;SDS011;25866;52.420;10.640;2022-11-12T07:18:46;2.07;;;1.80;;
40150;SDS011;25866;52.420;10.640;2022-11-12T07:21:14;2.47;;;1.90;;
40150;SDS011;25866;52.420;10.640;2022-11-12T07:23:41;4.73;;;2.23;;
40150;SDS011;25866;52.420;10.640;2022-11-12T07:26:15;4.20;;;2.27;;
40150;SDS011;25866;52.420;10.640;2022-11-12T07:28:43;5.97;;;2.30;;
40150;SDS011;25866;52.420;10.640;2022-11-12T07:31:10;3.00;;;2.10;;
40150;SDS011;25866;52.420;10.640;2022-11-12T07:33:37;2.67;;;1.90;;
40150;SDS011;25866;52.420;10.640;2022-11-12T07:36:03;2.43;;;1.60;;
40150;SDS011;25866;52.420;10.640;2022-11-12T07:38:36;3.20;;;2.10;;
40150;SDS011;25866;52.420;10.640;2022-11-12T07:41:05;3.83;;;2.03;;
40150;SDS011;25866;52.420;10.640;2022-11-12T07:43:31;3.23;;;2.27;;
40150;SDS011;25866;52.420;10.640;2022-11-12T07:45:59;6.90;;;2.50;;
40150;SDS011;25866;52.420;10.640;2022-11-12T07:48:33;5.03;;;2.20;;
40150;SDS011;25866;52.420;10.640;2022-11-12T07:50:59;3.63;;;2.33;;
40150;SDS011;25866;52.420;10.640;2022-11-12T07:53:30;4.07;;;2.57;;
40150;SDS011;25866;52.420;10.640;2022-11-12T07:55:57;3.37;;;2.10;;
40150;SDS011;25866;52.420;10.640;2022-11-12T07:58:25;4.67;;;2.00;;
40150;SDS011;25866;52.420;10.640;2022-11-12T08:00:54;4.53;;;2.07;;
40150;SDS011;25866;52.420;10.640;2022-11-12T08:03:20;2.67;;;2.07;;
40150;SDS011;25866;52.420;10.640;2022-11-12T08:05:46;3.20;;;1.80;;
40150;SDS011;25866;52.420;10.640;2022-11-12T08:08:12;3.20;;;2.00;;
40150;SDS011;25866;52.420;10.640;2022-11-12T08:10:38;2.93;;;1.87;;
40150;SDS011;25866;52.420;10.640;2022-11-12T08:13:04;4.47;;;2.27;;
40150;SDS011;25866;52.420;10.640;2022-11-12T08:15:30;3.43;;;2.10;;
40150;SDS011;25866;52.420;10.640;2022-11-12T08:17:56;2.80;;;1.90;;
40150;SDS011;25866;52.420;10.640;2022-11-12T08:20:22;3.47;;;2.20;;
40150;SDS011;25866;52.420;10.640;2022-11-12T08:22:48;4.03;;;2.03;;
40150;SDS011;25866;52.420;10.640;2022-11-12T08:25:14;4.60;;;2.80;;
40150;SDS011;25866;52.420;10.640;2022-11-12T08:27:41;2.70;;;1.90;;
40150;SDS011;25866;52.420;10.640;2022-11-12T08:30:07;4.17;;;2.20;;
40150;SDS011;25866;52.420;10.640;2022-11-12T08:32:33;5.43;;;2.63;;
40150;SDS011;25866;52.420;10.640;2022-11-12T08:34:59;12.97;;;4.97;;
40150;SDS011;25866;52.420;10.640;2022-11-12T08:37:25;5.00;;;2.50;;
40150;SDS011;25866;52.420;10.640;2022-11-12T08:39:51;5.70;;;2.00;;
40150;SDS011;25866;52.420;10.640;2022-11-12T08:42:17;4.30;;;2.00;;
40150;SDS011;25866;52.420;10.640;2022-11-12T08:44:42;3.63;;;1.73;;
40150;SDS011;25866;52.420;10.640;2022-11-12T08:47:08;6.03;;;2.00;;
40150;SDS011;25866;52.420;10.640;2022-11-12T08:49:34;3.67;;;1.93;;
40150;SDS011;25866;52.420;10.640;2022-11-12T08:52:01;3.73;;;2.00;;
40150;SDS011;25866;52.420;10.640;2022-11-12T08:54:26;6.97;;;2.20;;
40150;SDS011;25866;52.420;10.640;2022-11-12T08:56:52;4.37;;;2.07;;
40150;SDS011;25866;52.420;10.640;2022-11-12T08:59:18;4.27;;;1.90;;
40150;SDS011;25866;52.420;10.640;2022-11-12T09:01:44;3.43;;;1.90;;
40150;SDS011;25866;52.420;10.640;2022-11-12T09:04:10;3.13;;;1.73;;
40150;SDS011;25866;52.420;10.640;2022-11-12T09:06:35;2.83;;;2.07;;
40150;SDS011;25866;52.420;10.640;2022-11-12T09:09:01;3.40;;;1.90;;
40150;SDS011;25866;52.420;10.640;2022-11-12T09:11:28;4.20;;;1.90;;
40150;SDS011;25866;52.420;10.640;2022-11-12T09:13:54;5.53;;;2.30;;
40150;SDS011;25866;52.420;10.640;2022-11-12T09:16:19;5.50;;;1.93;;
40150;SDS011;25866;52.420;10.640;2022-11-12T09:18:46;3.47;;;2.37;;
40150;SDS011;25866;52.420;10.640;2022-11-12T09:21:12;3.20;;;2.20;;
40150;SDS011;25866;52.420;10.640;2022-11-12T09:23:38;3.10;;;2.23;;
40150;SDS011;25866;52.420;10.640;2022-11-12T09:26:04;2.80;;;2.00;;
40150;SDS011;25866;52.420;10.640;2022-11-12T09:28:31;4.00;;;2.17;;
40150;SDS011;25866;52.420;10.640;2022-11-12T09:30:57;4.23;;;2.70;;
40150;SDS011;25866;52.420;10.640;2022-11-12T09:33:24;3.53;;;2.40;;
40150;SDS011;25866;52.420;10.640;2022-11-12T09:35:54;5.40;;;2.73;;
40150;SDS011;25866;52.420;10.640;2022-11-12T09:38:20;6.93;;;3.20;;
40150;SDS011;25866;52.420;10.640;2022-11-12T09:43:26;11.30;;;7.83;;
40150;SDS011;25866;52.420;10.640;2022-11-12T09:45:58;8.97;;;5.33;;
40150;SDS011;25866;52.420;10.640;2022-11-12T09:48:31;8.90;;;6.10;;
40150;SDS011;25866;52.420;10.640;2022-11-12T09:51:12;5.97;;;3.73;;
40150;SDS011;25866;52.420;10.640;2022-11-12T09:53:56;5.63;;;4.17;;
40150;SDS011;25866;52.420;10.640;2022-11-12T09:56:24;4.57;;;3.57;;
40150;SDS011;25866;52.420;10.640;2022-11-12T09:58:52;7.27;;;3.30;;
40150;SDS011;25866;52.420;10.640;2022-11-12T10:04:02;5.37;;;3.00;;
40150;SDS011;25866;52.420;10.640;2022-11-12T10:09:32;4.40;;;2.93;;
40150;SDS011;25866;52.420;10.640;2022-11-12T10:23:48;8.40;;;5.07;;
40150;SDS011;25866;52.420;10.640;2022-11-12T10:26:17;26.27;;;13.57;;
40150;SDS011;25866;52.420;10.640;2022-11-12T10:28:49;5.93;;;4.13;;
40150;SDS011;25866;52.420;10.640;2022-11-12T10:31:24;4.13;;;3.00;;
40150;SDS011;25866;52.420;10.640;2022-11-12T10:33:53;3.93;;;3.00;;
40150;SDS011;25866;52.420;10.640;2022-11-12T10:36:51;6.70;;;2.87;;
40150;SDS011;25866;52.420;10.640;2022-11-12T10:39:40;3.97;;;3.20;;
40150;SDS011;25866;52.420;10.640;2022-11-12T10:42:09;4.40;;;3.45;;
40150;SDS011;25866;52.420;10.640;2022-11-12T10:44:40;6.03;;;3.35;;
40150;SDS011;25866;52.420;10.640;2022-11-12T10:50:11;6.03;;;3.17;;
40150;SDS011;25866;52.420;10.640;2022-11-12T10:52:51;5.82;;;3.05;;
40150;SDS011;25866;52.420;10.640;2022-11-12T10:55:22;4.38;;;3.30;;
40150;SDS011;25866;52.420;10.640;2022-11-12T11:00:34;6.15;;;3.25;;
40150;SDS011;25866;52.420;10.640;2022-11-12T11:03:04;6.28;;;3.25;;
40150;SDS011;25866;52.420;10.640;2022-11-12T11:08:15;5.45;;;3.00;;
40150;SDS011;25866;52.420;10.640;2022-11-12T11:11:33;5.10;;;3.17;;
40150;SDS011;25866;52.420;10.640;2022-11-12T11:13:53;5.38;;;3.35;;
40150;SDS011;25866;52.420;10.640;2022-11-12T11:16:25;5.10;;;3.05;;
40150;SDS011;25866;52.420;10.640;2022-11-12T11:18:57;5.05;;;3.15;;
40150;SDS011;25866;52.420;10.640;2022-11-12T11:26:56;6.22;;;3.78;;
40150;SDS011;25866;52.420;10.640;2022-11-12T11:41:27;5.13;;;3.05;;
40150;SDS011;25866;52.420;10.640;2022-11-12T11:44:20;4.45;;;2.88;;
40150;SDS011;25866;52.420;10.640;2022-11-12T11:46:59;6.10;;;3.55;;
40150;SDS011;25866;52.420;10.640;2022-11-12T11:55:46;5.85;;;3.20;;
40150;SDS011;25866;52.420;10.640;2022-11-12T11:58:34;6.93;;;4.18;;
40150;SDS011;25866;52.420;10.640;2022-11-12T12:06:59;6.88;;;3.20;;
40150;SDS011;25866;52.420;10.640;2022-11-12T12:12:44;7.13;;;4.30;;
40150;SDS011;25866;52.420;10.640;2022-11-12T12:20:51;5.38;;;3.45;;
40150;SDS011;25866;52.420;10.640;2022-11-12T12:23:33;6.93;;;3.20;;
40150;SDS011;25866;52.420;10.640;2022-11-12T12:26:00;3.55;;;2.35;;
40150;SDS011;25866;52.420;10.640;2022-11-12T12:28:36;4.50;;;2.40;;
40150;SDS011;25866;52.420;10.640;2022-11-12T12:31:10;4.75;;;2.22;;
40150;SDS011;25866;52.420;10.640;2022-11-12T12:36:19;5.13;;;2.13;;
40150;SDS011;25866;52.420;10.640;2022-11-12T12:39:10;7.90;;;2.10;;
40150;SDS011;25866;52.420;10.640;2022-11-12T12:44:09;4.00;;;1.98;;
40150;SDS011;25866;52.420;10.640;2022-11-12T12:46:46;6.55;;;2.30;;
40150;SDS011;25866;52.420;10.640;2022-11-12T12:49:16;3.95;;;1.95;;
40150;SDS011;25866;52.420;10.640;2022-11-12T12:51:49;3.58;;;1.80;;
40150;SDS011;25866;52.420;10.640;2022-11-12T12:57:09;2.85;;;2.22;;
40150;SDS011;25866;52.420;10.640;2022-11-12T13:02:57;4.30;;;2.40;;
40150;SDS011;25866;52.420;10.640;2022-11-12T13:08:11;3.03;;;1.88;;
40150;SDS011;25866;52.420;10.640;2022-11-12T13:15:45;6.15;;;2.50;;
40150;SDS011;25866;52.420;10.640;2022-11-12T13:21:13;4.22;;;2.63;;
40150;SDS011;25866;52.420;10.640;2022-11-12T13:23:47;4.43;;;2.30;;
40150;SDS011;25866;52.420;10.640;2022-11-12T13:43:30;3.78;;;3.17;;
40150;SDS011;25866;52.420;10.640;2022-11-12T13:48:44;4.22;;;2.40;;
40150;SDS011;25866;52.420;10.640;2022-11-12T13:51:30;5.05;;;2.70;;
40150;SDS011;25866;52.420;10.640;2022-11-12T13:56:53;6.10;;;2.65;;
40150;SDS011;25866;52.420;10.640;2022-11-12T13:59:20;7.78;;;2.60;;
40150;SDS011;25866;52.420;10.640;2022-11-12T14:01:47;4.82;;;2.22;;
40150;SDS011;25866;52.420;10.640;2022-11-12T14:04:14;4.78;;;3.33;;
40150;SDS011;25866;52.420;10.640;2022-11-12T14:06:44;6.65;;;3.58;;
40150;SDS011;25866;52.420;10.640;2022-11-12T14:09:31;6.75;;;3.10;;
40150;SDS011;25866;52.420;10.640;2022-11-12T14:20:52;3.05;;;2.03;;
40150;SDS011;25866;52.420;10.640;2022-11-12T14:23:19;4.93;;;1.83;;
40150;SDS011;25866;52.420;10.640;2022-11-12T14:25:47;4.10;;;1.95;;
40150;SDS011;25866;52.420;10.640;2022-11-12T14:28:28;4.75;;;2.40;;
40150;SDS011;25866;52.420;10.640;2022-11-12T14:30:55;4.60;;;2.15;;
40150;SDS011;25866;52.420;10.640;2022-11-12T14:33:23;6.22;;;1.98;;
40150;SDS011;25866;52.420;10.640;2022-11-12T14:35:53;2.97;;;1.90;;
40150;SDS011;25866;52.420;10.640;2022-11-12T14:38:41;1.90;;;1.50;;
40150;SDS011;25866;52.420;10.640;2022-11-12T14:41:15;4.63;;;1.50;;
40150;SDS011;25866;52.420;10.640;2022-11-12T14:43:45;4.38;;;2.00;;
40150;SDS011;25866;52.420;10.640;2022-11-12T14:46:21;4.28;;;2.08;;
40150;SDS011;25866;52.420;10.640;2022-11-12T14:48:49;2.95;;;1.70;;
40150;SDS011;25866;52.420;10.640;2022-11-12T14:52:04;4.60;;;1.90;;
40150;SDS011;25866;52.420;10.640;2022-11-12T14:54:44;4.32;;;1.70;;
40150;SDS011;25866;52.420;10.640;2022-11-12T14:57:19;4.63;;;1.85;;
40150;SDS011;25866;52.420;10.640;2022-11-12T14:59:49;4.30;;;1.90;;
40150;SDS011;25866;52.420;10.640;2022-11-12T15:02:17;3.25;;;1.88;;
40150;SDS011;25866;52.420;10.640;2022-11-12T15:04:53;4.82;;;2.00;;
40150;SDS011;25866;52.420;10.640;2022-11-12T15:07:28;3.35;;;1.90;;
40150;SDS011;25866;52.420;10.640;2022-11-12T15:09:59;4.22;;;2.15;;
40150;SDS011;25866;52.420;10.640;2022-11-12T15:12:26;6.13;;;3.17;;
40150;SDS011;25866;52.420;10.640;2022-11-12T15:15:05;8.02;;;4.07;;
40150;SDS011;25866;52.420;10.640;2022-11-12T15:17:33;7.68;;;4.45;;
40150;SDS011;25866;52.420;10.640;2022-11-12T15:20:05;8.52;;;4.50;;
40150;SDS011;25866;52.420;10.640;2022-11-12T15:22:37;10.45;;;6.28;;
40150;SDS011;25866;52.420;10.640;2022-11-12T15:25:37;8.43;;;5.20;;
40150;SDS011;25866;52.420;10.640;2022-11-12T15:28:10;13.30;;;6.55;;
40150;SDS011;25866;52.420;10.640;2022-11-12T15:30:37;6.05;;;3.50;;
40150;SDS011;25866;52.420;10.640;2022-11-12T15:33:07;10.95;;;4.70;;
40150;SDS011;25866;52.420;10.640;2022-11-12T15:35:34;19.60;;;9.50;;
40150;SDS011;25866;52.420;10.640;2022-11-12T15:38:05;14.07;;;6.57;;
40150;SDS011;25866;52.420;10.640;2022-11-12T15:40:41;11.05;;;5.25;;
40150;SDS011;25866;52.420;10.640;2022-11-12T15:43:13;4.40;;;2.60;;
40150;SDS011;25866;52.420;10.640;2022-11-12T15:45:42;5.18;;;2.28;;
40150;SDS011;25866;52.420;10.640;2022-11-12T15:48:13;5.38;;;2.63;;
40150;SDS011;25866;52.420;10.640;2022-11-12T15:50:38;6.20;;;2.83;;
40150;SDS011;25866;52.420;10.640;2022-11-12T15:53:04;7.07;;;3.40;;
40150;SDS011;25866;52.420;10.640;2022-11-12T15:55:31;7.15;;;3.83;;
40150;SDS011;25866;52.420;10.640;2022-11-12T15:57:57;7.38;;;4.45;;
40150;SDS011;25866;52.420;10.640;2022-11-12T16:00:24;9.63;;;3.60;;
40150;SDS011;25866;52.420;10.640;2022-11-12T16:02:55;5.85;;;3.67;;
40150;SDS011;25866;52.420;10.640;2022-11-12T16:05:23;7.65;;;4.07;;
40150;SDS011;25866;52.420;10.640;2022-11-12T16:07:49;8.35;;;4.53;;
40150;SDS011;25866;52.420;10.640;2022-11-12T16:10:16;9.30;;;4.90;;
40150;SDS011;25866;52.420;10.640;2022-11-12T16:12:44;7.45;;;4.28;;
40150;SDS011;25866;52.420;10.640;2022-11-12T16:15:16;8.43;;;4.67;;
40150;SDS011;25866;52.420;10.640;2022-11-12T16:17:44;5.45;;;3.65;;
40150;SDS011;25866;52.420;10.640;2022-11-12T16:20:14;3.92;;;2.47;;
40150;SDS011;25866;52.420;10.640;2022-11-12T16:22:41;4.57;;;3.03;;
40150;SDS011;25866;52.420;10.640;2022-11-12T16:25:07;3.03;;;2.40;;
40150;SDS011;25866;52.420;10.640;2022-11-12T16:27:34;5.00;;;2.78;;
40150;SDS011;25866;52.420;10.640;2022-11-12T16:30:02;4.93;;;3.05;;
40150;SDS011;25866;52.420;10.640;2022-11-12T16:32:28;4.85;;;2.92;;
40150;SDS011;25866;52.420;10.640;2022-11-12T16:34:54;6.47;;;2.93;;
40150;SDS011;25866;52.420;10.640;2022-11-12T16:37:20;5.88;;;2.88;;
40150;SDS011;25866;52.420;10.640;2022-11-12T16:39:46;6.90;;;2.70;;
40150;SDS011;25866;52.420;10.640;2022-11-12T16:42:12;8.30;;;2.85;;
40150;SDS011;25866;52.420;10.640;2022-11-12T16:44:37;6.77;;;2.97;;
40150;SDS011;25866;52.420;10.640;2022-11-12T16:47:04;3.87;;;2.67;;
40150;SDS011;25866;52.420;10.640;2022-11-12T16:49:30;5.07;;;2.80;;
40150;SDS011;25866;52.420;10.640;2022-11-12T16:51:57;8.63;;;3.00;;
40150;SDS011;25866;52.420;10.640;2022-11-12T16:54:23;5.17;;;2.90;;
40150;SDS011;25866;52.420;10.640;2022-11-12T16:56:48;4.97;;;2.80;;